Latest Weather Observations for Point Cook

IDV60801

Issued at 4:02 pm EST Friday 27 May 2022 (issued every 10 minutes, with the page automatically refreshed every 10 minutes)

About weather observations | Map of weather stations | Latest weather observations for VIC | Other Formats
Station Details ID: 087185 Name: POINT COOK RAAF Lat: -37.93 Lon: 144.76 Height: 3.13 m
Data from the previous 72 hours. | See also: Recent months for locations in Victoria
Date/Time
EST
Temp
°C
App
Temp
°C
Dew
Point
°C
Rel
Hum
%
Delta-T
°C
Wind Press
QNH
hPa
Press
MSL
hPa
Rain since
9am
mm
Dir  Spd
km/h
Gust
km/h
Spd
kts
Gust
kts
27/04:00pm 14.5 13.5 10.3 76 2.2 ESE 6 6 3 3 1016.2 1016.2 0.0
27/03:30pm 14.5 13.1 9.7 73 2.5 SE 7 11 4 6 1016.1 1016.1 0.0
27/03:00pm 14.1 13.2 10.7 80 1.8 SE 6 7 3 4 1016.4 1016.4 0.0
27/02:30pm 13.7 12.6 10.7 82 1.6 SSE 7 7 4 4 1016.6 1016.6 0.0
27/02:00pm 14.4 13.5 10.8 79 1.9 SE 6 11 3 6 1016.9 1016.9 0.0
27/01:30pm 13.9 12.0 10.5 80 1.8 SSE 11 13 6 7 1017.3 1017.3 0.0
27/01:00pm 14.0 12.9 10.6 80 1.8 S 7 9 4 5 1017.7 1017.7 0.0
27/12:30pm 14.1 12.6 10.5 79 1.9 S 9 9 5 5 1018.0 1018.0 0.0
27/12:00pm 14.2 13.1 10.6 79 1.9 S 7 9 4 5 1018.6 1018.6 0.0
27/11:30am 14.8 14.3 10.6 76 2.2 W 4 9 2 5 1019.1 1019.1 0.0
27/11:00am 14.1 13.5 10.3 78 2.0 W 4 7 2 4 1019.4 1019.4 0.0
27/10:30am 13.9 12.4 10.5 80 1.8 WSW 9 13 5 7 1019.5 1019.5 0.0
27/10:00am 14.0 12.1 10.6 80 1.8 W 11 15 6 8 1019.4 1019.4 0.0
27/09:30am 13.0 12.6 9.8 81 1.6 NW 2 4 1 2 1019.5 1019.5 0.0
27/09:00am 12.2 12.3 10.1 87 1.1 CALM 0 0 0 0 1019.5 1019.5 0.2
27/08:30am 11.7 11.3 9.8 88 1.0 N 2 2 1 1 1019.4 1019.4 0.2
27/08:00am 11.3 10.5 9.6 89 0.9 NW 4 6 2 3 1019.2 1019.2 0.2
27/07:30am 11.1 9.9 9.5 90 0.8 NW 6 6 3 3 1019.0 1019.0 0.2
27/07:00am 11.1 10.6 9.5 90 0.8 NW 2 4 1 2 1018.6 1018.6 0.2
27/06:30am 11.2 10.0 9.6 90 0.8 NW 6 7 3 4 1018.4 1018.4 0.2
27/06:00am 11.2 9.8 9.5 89 0.9 WNW 7 7 4 4 1018.2 1018.2 0.2
27/05:30am 11.2 10.0 9.5 89 0.9 NW 6 6 3 3 1018.1 1018.1 0.2
27/05:00am 11.3 9.9 9.6 89 0.9 W 7 9 4 5 1018.0 1018.0 0.2
27/04:30am 11.7 10.5 9.4 86 1.2 W 6 9 3 5 1018.1 1018.1 0.2
27/04:00am 12.0 10.3 9.9 87 1.1 WSW 9 13 5 7 1017.9 1017.9 0.2
27/03:30am 11.8 10.2 10.2 90 0.8 SW 9 11 5 6 1018.1 1018.1 0.2
27/03:00am 12.3 10.4 10.4 88 1.0 W 11 15 6 8 1018.0 1018.0 0.2
27/02:30am 12.1 10.5 10.3 89 0.9 W 9 13 5 7 1017.7 1017.7 0.2
27/02:00am 12.3 10.8 10.5 89 0.9 WNW 9 13 5 7 1017.8 1017.8 0.2
27/01:30am 12.4 10.1 10.6 89 0.9 W 13 15 7 8 1017.5 1017.5 0.2
27/01:00am 11.9 10.8 10.8 93 0.6 WNW 7 9 4 5 1017.6 1017.6 0.2
27/12:30am 12.5 11.6 11.2 92 0.7 NW 7 9 4 5 1017.6 1017.6 0.2
27/12:00am 12.7 11.8 11.4 92 0.7 NW 7 9 4 5 1017.7 1017.7 0.2
 
Date/Time
EST
Temp
°C
App
Temp
°C
Dew
Point
°C
Rel
Hum
%
Delta-T
°C
Wind Press
QNH
hPa
Press
MSL
hPa
Rain since
9am
mm
Dir  Spd
km/h
Gust
km/h
Spd
kts
Gust
kts
26/11:30pm 12.5 11.6 11.2 92 0.7 NW 7 9 4 5 1017.6 1017.6 0.2
26/11:00pm 12.9 12.0 11.3 90 0.8 W 7 11 4 6 1017.4 1017.4 0.2
26/10:30pm 12.7 11.7 11.1 90 0.8 NW 7 9 4 5 1017.4 1017.4 0.2
26/10:00pm 12.9 11.5 10.8 87 1.1 NW 9 11 5 6 1017.4 1017.4 0.2
26/09:30pm 12.8 11.4 10.9 88 1.0 NW 9 11 5 6 1017.3 1017.3 0.2
26/09:00pm 12.2 11.1 10.6 90 0.8 NNW 7 11 4 6 1017.0 1017.0 0.2
26/08:30pm 12.7 11.4 11.3 91 0.7 N 9 11 5 6 1016.8 1016.8 0.2
26/08:00pm 13.0 12.6 11.2 89 0.9 N 4 6 2 3 1016.7 1016.7 0.2
26/07:30pm 13.2 12.6 11.6 90 0.9 N 6 6 3 3 1016.6 1016.6 0.2
26/07:00pm 13.1 11.5 11.5 90 0.8 N 11 13 6 7 1016.3 1016.3 0.2
26/06:30pm 13.6 11.7 11.7 88 1.0 N 13 17 7 9 1016.0 1016.0 0.2
26/06:00pm 13.9 12.0 11.8 87 1.1 N 13 15 7 8 1015.7 1015.7 0.2
26/05:30pm 14.5 13.0 12.0 85 1.4 NNE 11 15 6 8 1015.2 1015.2 0.2
26/05:00pm 15.1 12.6 12.2 83 1.6 NNE 17 22 9 12 1015.1 1015.1 0.2
26/04:30pm 15.6 13.5 12.4 81 1.8 NNE 15 20 8 11 1015.1 1015.1 0.2
26/04:00pm 15.7 13.3 12.5 81 1.8 NNE 17 24 9 13 1015.1 1015.1 0.2
26/03:30pm 15.9 13.4 12.3 79 2.0 NNE 17 24 9 13 1014.9 1014.9 0.2
26/03:00pm 15.7 12.9 12.5 81 1.8 NE 19 28 10 15 1014.9 1014.9 0.2
26/02:30pm 15.8 12.9 12.2 79 2.0 NNE 19 24 10 13 1014.8 1014.8 0.2
26/02:00pm 15.1 12.1 12.1 82 1.6 NNE 19 26 10 14 1014.9 1014.9 0.2
26/01:30pm 14.8 12.2 11.9 83 1.6 NNE 17 24 9 13 1015.0 1015.0 0.2
26/01:00pm 14.8 11.8 11.8 82 1.6 NNE 19 28 10 15 1015.4 1015.4 0.2
26/12:30pm 14.8 11.8 12.1 84 1.5 NNE 19 26 10 14 1015.6 1015.6 0.2
26/12:00pm 15.0 11.7 11.6 80 1.8 NNE 20 28 11 15 1015.9 1015.9 0.0
26/11:30am 15.4 12.4 11.8 79 1.9 N 19 24 10 13 1016.1 1016.1 0.0
26/11:00am 15.0 11.8 11.8 81 1.7 NNE 20 26 11 14 1016.4 1016.4 0.0
26/10:30am 14.9 11.6 11.5 80 1.8 NNE 20 28 11 15 1016.5 1016.5 0.0
26/10:00am 14.7 12.3 11.5 81 1.7 NNE 15 22 8 12 1016.5 1016.5 0.0
26/09:30am 15.1 13.1 11.5 79 1.9 NNE 13 17 7 9 1016.5 1016.5 0.0
26/09:00am 14.0 9.8 11.0 82 1.6 NNE 24 37 13 20 1016.2 1016.2 -
26/08:30am 13.8 8.8 10.8 82 1.6 NNE 28 39 15 21 1016.1 1016.1 -
26/08:00am 13.9 10.0 10.9 82 1.6 NNE 22 30 12 16 1016.0 1016.0 -
26/07:30am 13.8 10.5 10.8 82 1.6 NNE 19 28 10 15 1016.0 1016.0 -
26/07:00am 13.7 10.4 10.9 83 1.5 NNE 19 26 10 14 1015.6 1015.6 -
26/06:30am 13.8 10.4 10.4 80 1.8 NNE 19 28 10 15 1015.6 1015.6 -
26/06:00am 13.6 10.2 10.6 82 1.6 NNE 19 28 10 15 1015.5 1015.5 -
26/05:30am 13.4 10.5 10.9 85 1.3 N 17 20 9 11 1015.6 1015.6 -
26/05:00am 13.0 11.3 11.2 89 0.9 N 11 17 6 9 1015.6 1015.6 -
26/04:30am 12.9 10.4 11.1 89 0.9 N 15 19 8 10 1015.7 1015.7 -
26/04:00am 13.8 10.9 9.6 76 2.1 N 15 22 8 12 1015.7 1015.7 -
26/03:30am 14.3 11.6 9.1 71 2.6 NNE 13 20 7 11 1015.5 1015.5 -
26/03:00am 14.2 10.7 8.8 70 2.7 NNE 17 22 9 12 1015.8 1015.8 0.0
26/02:30am 13.4 11.4 8.7 73 2.4 NE 9 15 5 8 1016.1 1016.1 -
26/02:00am 11.7 10.9 8.2 79 1.7 NNE 2 4 1 2 1016.4 1016.4 -
26/01:30am 11.8 10.6 8.1 78 1.8 NNE 4 6 2 3 1016.3 1016.3 -
26/01:00am 12.1 10.6 8.6 79 1.7 NNE 6 7 3 4 1016.4 1016.4 -
26/12:30am 11.9 10.5 8.7 81 1.6 NE 6 7 3 4 1016.6 1016.6 -
26/12:00am 11.2 9.6 8.8 85 1.2 NNE 7 7 4 4 1017.0 1017.0 -
 
Date/Time
EST
Temp
°C
App
Temp
°C
Dew
Point
°C
Rel
Hum
%
Delta-T
°C
Wind Press
QNH
hPa
Press
MSL
hPa
Rain since
9am
mm
Dir  Spd
km/h
Gust
km/h
Spd
kts
Gust
kts
25/11:30pm 11.6 10.7 9.3 86 1.2 NE 4 6 2 3 1017.3 1017.3 -
25/11:00pm 11.2 10.5 8.6 84 1.3 ENE 2 4 1 2 1017.6 1017.6 -
25/10:30pm 11.7 10.4 9.3 85 1.2 ENE 6 7 3 4 1017.7 1017.7 -
25/10:00pm 11.8 11.0 8.3 79 1.7 ENE 2 4 1 2 1017.9 1017.9 -
25/09:30pm 13.1 11.7 8.8 75 2.2 NE 6 9 3 5 1018.1 1018.1 -
25/09:00pm 13.1 11.8 9.2 77 2.0 NE 6 9 3 5 1018.3 1018.3 0.0
25/08:30pm 13.7 11.8 9.0 73 2.4 NE 9 13 5 7 1018.4 1018.4 -
25/08:00pm 13.3 12.0 9.2 76 2.1 NE 6 7 3 4 1018.6 1018.6 -
25/07:30pm 14.1 12.8 9.1 72 2.5 NE 6 7 3 4 1018.7 1018.7 -
25/07:00pm 14.3 12.5 9.3 72 2.5 NE 9 11 5 6 1018.6 1018.6 -
25/06:30pm 14.6 13.2 9.6 72 2.6 NE 7 11 4 6 1018.6 1018.6 -
25/06:00pm 14.6 13.2 9.6 72 2.6 NE 7 9 4 5 1018.5 1018.5 -
25/05:30pm 15.1 13.9 10.3 73 2.5 NE 7 9 4 5 1018.5 1018.5 -
25/05:00pm 16.1 14.4 10.0 67 3.2 NE 9 15 5 8 1018.4 1018.4 -
25/04:30pm 16.2 14.2 10.1 67 3.2 ENE 11 15 6 8 1018.5 1018.5 -
25/04:00pm 17.4 15.9 9.3 59 4.2 NE 7 13 4 7 1018.7 1018.7 -
25/03:30pm 17.6 15.0 9.5 59 4.2 NE 13 20 7 11 1018.7 1018.7 -
25/03:00pm 18.4 15.0 9.2 55 4.8 NNE 17 24 9 13 1018.8 1018.8 -
25/02:30pm 18.2 14.3 9.3 56 4.7 NNE 20 24 11 13 1019.0 1019.0 -
25/02:00pm 18.1 14.1 8.9 55 4.8 N 20 30 11 16 1019.4 1019.4 -
25/01:30pm 18.9 15.0 9.4 54 5.0 NNE 20 28 11 15 1019.7 1019.7 -
25/01:00pm 17.9 15.1 10.0 60 4.2 ENE 15 20 8 11 1020.2 1020.2 -
25/12:30pm 16.7 12.9 9.1 61 3.9 ENE 19 24 10 13 1020.8 1020.8 -
25/12:00pm - - - - - - - - - - - - -
25/10:00am 11.3 9.7 8.2 81 1.5 ENE 6 7 3 4 1023.1 1023.1 0.0
25/09:30am 10.6 8.9 8.4 86 1.1 NNE 7 7 4 4 1023.1 1023.1 0.0
25/09:00am 9.1 7.4 7.5 90 0.8 NNE 6 6 3 3 1023.2 1023.2 0.0
25/08:30am 8.3 7.2 6.8 90 0.7 NE 2 4 1 2 1023.0 1023.0 0.0
25/08:00am 8.4 6.3 6.5 88 0.9 NE 7 9 4 5 1022.9 1022.9 0.0
25/07:30am 7.2 5.3 6.6 96 0.3 NE 6 7 3 4 1022.8 1022.8 0.0
25/07:00am 5.5 3.1 4.5 93 0.4 ENE 6 7 3 4 1022.7 1022.7 0.0
25/06:30am 7.0 5.0 6.1 94 0.4 NE 6 7 3 4 1022.7 1022.7 0.0
25/06:00am 6.6 4.5 5.7 94 0.4 NNE 6 6 3 3 1022.7 1022.7 0.0
25/05:30am 7.1 5.5 6.2 94 0.4 NE 4 6 2 3 1022.6 1022.6 0.0
25/05:00am 7.0 4.8 6.1 94 0.4 NE 7 11 4 6 1022.7 1022.7 0.0
25/04:30am 6.2 4.0 5.3 94 0.4 NNE 6 6 3 3 1022.7 1022.7 0.0
25/04:00am 6.1 4.6 5.1 93 0.4 NNE 2 4 1 2 1022.9 1022.9 0.0
25/03:30am 6.3 4.0 4.9 91 0.6 NNE 6 7 3 4 1023.3 1023.3 0.0
25/03:00am 6.9 4.7 6.0 94 0.4 NNE 7 9 4 5 1023.7 1023.7 0.0
25/02:30am 7.4 5.4 6.3 93 0.5 NNE 6 6 3 3 1023.9 1023.9 0.0
25/02:00am 7.3 5.3 6.4 94 0.4 NNE 6 7 3 4 1024.1 1024.1 0.0
25/01:30am 7.3 5.4 6.6 95 0.3 NE 6 7 3 4 1024.2 1024.2 0.0
25/01:00am 7.3 5.8 6.7 96 0.3 NE 4 6 2 3 1024.6 1024.6 0.0
25/12:30am 6.3 4.1 5.4 94 0.4 NNE 6 6 3 3 1024.9 1024.9 0.0
25/12:00am 7.6 6.1 6.9 95 0.3 NNE 4 6 2 3 1025.0 1025.0 0.0
 
Date/Time
EST
Temp
°C
App
Temp
°C
Dew
Point
°C
Rel
Hum
%
Delta-T
°C
Wind Press
QNH
hPa
Press
MSL
hPa
Rain since
9am
mm
Dir  Spd
km/h
Gust
km/h
Spd
kts
Gust
kts
24/11:30pm 7.4 5.5 6.8 96 0.3 NW 6 7 3 4 1025.2 1025.2 0.0
24/11:00pm 7.2 5.1 6.6 96 0.3 NW 7 7 4 4 1025.2 1025.2 0.0
24/10:30pm 7.0 5.7 5.9 93 0.5 E 2 4 1 2 1025.5 1025.5 0.0
24/10:00pm 10.0 9.8 8.9 93 0.5 CALM 0 2 0 1 1025.5 1025.5 0.0
24/09:30pm 10.6 9.5 8.5 87 1.0 E 4 4 2 2 1025.6 1025.6 0.0
24/09:00pm 12.0 11.1 9.4 84 1.3 NE 4 6 2 3 1025.7 1025.7 0.0
24/08:30pm 12.4 11.6 9.6 83 1.4 NE 4 7 2 4 1026.0 1026.0 0.0
24/08:00pm 13.0 11.6 9.6 80 1.7 E 7 11 4 6 1026.0 1026.0 0.0
24/07:30pm 14.2 11.6 9.4 73 2.5 ESE 13 19 7 10 1025.7 1025.7 0.0
24/07:00pm 14.2 12.0 10.8 80 1.8 ESE 13 17 7 9 1025.4 1025.4 0.0
24/06:30pm 14.4 11.8 10.8 79 1.9 ESE 15 19 8 10 1025.3 1025.3 0.0
24/06:00pm 13.8 12.1 11.1 84 1.4 ESE 11 13 6 7 1025.1 1025.1 0.0
24/05:30pm 14.6 11.9 11.6 82 1.6 SE 17 19 9 10 1024.8 1024.8 0.0
24/05:00pm 15.1 12.3 11.3 78 2.0 SE 17 20 9 11 1024.6 1024.6 0.0
24/04:30pm 15.6 12.9 11.6 77 2.2 SE 17 22 9 12 1024.2 1024.2 0.0

Other formats

Comma delimited format used in spreadsheet applications
http://www.bom.gov.au/fwo/IDV60801/IDV60801.95941.axf

JavaScript Object Notation format (JSON) in row-major order
http://www.bom.gov.au/fwo/IDV60801/IDV60801.95941.json

Data quality

Most of these data are generated automatically and are frequently updated. Quality checks on data are not normally performed. It is possible for incorrect values to appear. Refer to information at About Latest Weather Observations and please check the disclaimer before using these data.